sensor_id;sensor_type;location;lat;lon;timestamp;temperature;humidity
6841;DHT22;3458;53.678;14.080;2023-03-05T00:01:53;2.20;82.10
6841;DHT22;3458;53.678;14.080;2023-03-05T00:04:18;2.30;82.00
6841;DHT22;3458;53.678;14.080;2023-03-05T00:06:44;2.30;81.80
6841;DHT22;3458;53.678;14.080;2023-03-05T00:09:09;2.30;81.50
6841;DHT22;3458;53.678;14.080;2023-03-05T00:11:35;2.30;81.10
6841;DHT22;3458;53.678;14.080;2023-03-05T00:14:02;2.30;81.20
6841;DHT22;3458;53.678;14.080;2023-03-05T00:16:29;2.30;81.60
6841;DHT22;3458;53.678;14.080;2023-03-05T00:18:56;2.30;80.90
6841;DHT22;3458;53.678;14.080;2023-03-05T00:21:36;2.30;80.90
6841;DHT22;3458;53.678;14.080;2023-03-05T00:24:11;2.40;80.90
6841;DHT22;3458;53.678;14.080;2023-03-05T00:26:37;2.40;80.50
6841;DHT22;3458;53.678;14.080;2023-03-05T00:29:04;2.40;80.40
6841;DHT22;3458;53.678;14.080;2023-03-05T00:31:30;2.30;79.90
6841;DHT22;3458;53.678;14.080;2023-03-05T00:34:01;2.30;80.50
6841;DHT22;3458;53.678;14.080;2023-03-05T00:36:28;2.20;80.60
6841;DHT22;3458;53.678;14.080;2023-03-05T00:38:54;2.20;81.40
6841;DHT22;3458;53.678;14.080;2023-03-05T00:41:20;2.10;82.60
6841;DHT22;3458;53.678;14.080;2023-03-05T00:43:46;2.10;84.10
6841;DHT22;3458;53.678;14.080;2023-03-05T00:46:11;2.10;85.50
6841;DHT22;3458;53.678;14.080;2023-03-05T00:48:37;2.10;86.20
6841;DHT22;3458;53.678;14.080;2023-03-05T00:51:02;2.20;86.70
6841;DHT22;3458;53.678;14.080;2023-03-05T00:53:28;2.30;87.40
6841;DHT22;3458;53.678;14.080;2023-03-05T00:55:54;2.30;88.00
6841;DHT22;3458;53.678;14.080;2023-03-05T00:58:19;2.30;88.20
6841;DHT22;3458;53.678;14.080;2023-03-05T01:00:45;2.40;88.50
6841;DHT22;3458;53.678;14.080;2023-03-05T01:03:10;2.40;89.10
6841;DHT22;3458;53.678;14.080;2023-03-05T01:05:36;2.30;90.10
6841;DHT22;3458;53.678;14.080;2023-03-05T01:08:02;2.30;90.90
6841;DHT22;3458;53.678;14.080;2023-03-05T01:10:27;2.30;91.60
6841;DHT22;3458;53.678;14.080;2023-03-05T01:12:56;2.30;92.10
6841;DHT22;3458;53.678;14.080;2023-03-05T01:15:23;2.30;92.50
6841;DHT22;3458;53.678;14.080;2023-03-05T01:17:49;2.30;93.10
6841;DHT22;3458;53.678;14.080;2023-03-05T01:20:16;2.30;93.90
6841;DHT22;3458;53.678;14.080;2023-03-05T01:22:42;2.30;94.60
6841;DHT22;3458;53.678;14.080;2023-03-05T01:25:08;2.30;94.90
6841;DHT22;3458;53.678;14.080;2023-03-05T01:27:33;2.20;95.70
6841;DHT22;3458;53.678;14.080;2023-03-05T01:29:59;2.20;96.50
6841;DHT22;3458;53.678;14.080;2023-03-05T01:32:25;2.30;97.00
6841;DHT22;3458;53.678;14.080;2023-03-05T01:34:50;2.30;97.30
6841;DHT22;3458;53.678;14.080;2023-03-05T01:37:16;2.30;97.70
6841;DHT22;3458;53.678;14.080;2023-03-05T01:39:42;2.30;98.20
6841;DHT22;3458;53.678;14.080;2023-03-05T01:42:07;2.20;98.70
6841;DHT22;3458;53.678;14.080;2023-03-05T01:44:33;2.20;99.30
6841;DHT22;3458;53.678;14.080;2023-03-05T01:46:59;2.20;99.90
6841;DHT22;3458;53.678;14.080;2023-03-05T01:49:27;2.20;99.90
6841;DHT22;3458;53.678;14.080;2023-03-05T01:52:00;2.30;99.90
6841;DHT22;3458;53.678;14.080;2023-03-05T01:54:31;2.30;99.90
6841;DHT22;3458;53.678;14.080;2023-03-05T01:57:01;2.30;99.90
6841;DHT22;3458;53.678;14.080;2023-03-05T01:59:29;2.30;99.90
6841;DHT22;3458;53.678;14.080;2023-03-05T02:01:56;2.30;99.90
6841;DHT22;3458;53.678;14.080;2023-03-05T02:04:28;2.30;99.90
6841;DHT22;3458;53.678;14.080;2023-03-05T02:06:55;2.30;99.90
6841;DHT22;3458;53.678;14.080;2023-03-05T02:09:21;2.30;99.90
6841;DHT22;3458;53.678;14.080;2023-03-05T02:11:49;2.20;99.90
6841;DHT22;3458;53.678;14.080;2023-03-05T02:14:15;2.20;99.90
6841;DHT22;3458;53.678;14.080;2023-03-05T02:16:41;2.20;99.90
6841;DHT22;3458;53.678;14.080;2023-03-05T02:19:09;2.10;99.90
6841;DHT22;3458;53.678;14.080;2023-03-05T02:21:44;2.10;99.90
6841;DHT22;3458;53.678;14.080;2023-03-05T02:24:12;2.10;99.90
6841;DHT22;3458;53.678;14.080;2023-03-05T02:26:38;2.10;99.90
6841;DHT22;3458;53.678;14.080;2023-03-05T02:29:06;2.10;99.90
6841;DHT22;3458;53.678;14.080;2023-03-05T02:31:33;2.00;99.90
6841;DHT22;3458;53.678;14.080;2023-03-05T02:33:58;2.00;99.90
6841;DHT22;3458;53.678;14.080;2023-03-05T02:36:24;2.00;99.90
6841;DHT22;3458;53.678;14.080;2023-03-05T02:38:49;2.00;99.90
6841;DHT22;3458;53.678;14.080;2023-03-05T02:41:17;2.00;99.90
6841;DHT22;3458;53.678;14.080;2023-03-05T02:43:42;2.00;99.90
6841;DHT22;3458;53.678;14.080;2023-03-05T02:46:08;2.10;99.90
6841;DHT22;3458;53.678;14.080;2023-03-05T02:48:34;2.10;99.90
6841;DHT22;3458;53.678;14.080;2023-03-05T02:51:01;2.10;99.90
6841;DHT22;3458;53.678;14.080;2023-03-05T02:53:27;2.00;99.90
6841;DHT22;3458;53.678;14.080;2023-03-05T02:55:52;2.00;99.90
6841;DHT22;3458;53.678;14.080;2023-03-05T02:58:18;2.00;99.90
6841;DHT22;3458;53.678;14.080;2023-03-05T03:00:44;2.00;99.90
6841;DHT22;3458;53.678;14.080;2023-03-05T03:03:11;2.10;99.90
6841;DHT22;3458;53.678;14.080;2023-03-05T03:05:36;2.10;99.90
6841;DHT22;3458;53.678;14.080;2023-03-05T03:08:02;2.10;99.90
6841;DHT22;3458;53.678;14.080;2023-03-05T03:10:27;2.10;99.90
6841;DHT22;3458;53.678;14.080;2023-03-05T03:12:53;2.10;99.90
6841;DHT22;3458;53.678;14.080;2023-03-05T03:15:18;2.10;99.90
6841;DHT22;3458;53.678;14.080;2023-03-05T03:17:44;2.00;99.90
6841;DHT22;3458;53.678;14.080;2023-03-05T03:20:13;2.00;99.90
6841;DHT22;3458;53.678;14.080;2023-03-05T03:22:40;2.00;99.90
6841;DHT22;3458;53.678;14.080;2023-03-05T03:25:05;2.00;99.90
6841;DHT22;3458;53.678;14.080;2023-03-05T03:27:31;2.00;99.90
6841;DHT22;3458;53.678;14.080;2023-03-05T03:29:57;2.00;99.90
6841;DHT22;3458;53.678;14.080;2023-03-05T03:32:27;2.00;99.90
6841;DHT22;3458;53.678;14.080;2023-03-05T03:34:53;2.00;99.90
6841;DHT22;3458;53.678;14.080;2023-03-05T03:37:19;2.00;99.90
6841;DHT22;3458;53.678;14.080;2023-03-05T03:39:44;2.00;99.90
6841;DHT22;3458;53.678;14.080;2023-03-05T03:42:10;2.10;99.90
6841;DHT22;3458;53.678;14.080;2023-03-05T03:44:35;2.00;99.90
6841;DHT22;3458;53.678;14.080;2023-03-05T03:47:01;2.10;99.90
6841;DHT22;3458;53.678;14.080;2023-03-05T03:49:27;2.10;99.90
6841;DHT22;3458;53.678;14.080;2023-03-05T03:51:53;2.00;99.90
6841;DHT22;3458;53.678;14.080;2023-03-05T03:54:19;2.00;99.90
6841;DHT22;3458;53.678;14.080;2023-03-05T03:56:45;1.90;99.90
6841;DHT22;3458;53.678;14.080;2023-03-05T03:59:11;1.90;99.90
6841;DHT22;3458;53.678;14.080;2023-03-05T04:01:37;1.90;99.90
6841;DHT22;3458;53.678;14.080;2023-03-05T04:04:03;1.90;99.90
6841;DHT22;3458;53.678;14.080;2023-03-05T04:06:29;1.90;99.90
6841;DHT22;3458;53.678;14.080;2023-03-05T04:08:55;1.90;99.90
6841;DHT22;3458;53.678;14.080;2023-03-05T04:11:20;1.90;99.90
6841;DHT22;3458;53.678;14.080;2023-03-05T04:13:46;1.90;99.90
6841;DHT22;3458;53.678;14.080;2023-03-05T04:16:12;1.90;99.90
6841;DHT22;3458;53.678;14.080;2023-03-05T04:18:38;1.80;99.90
6841;DHT22;3458;53.678;14.080;2023-03-05T04:21:04;1.80;99.90
6841;DHT22;3458;53.678;14.080;2023-03-05T04:23:30;1.80;99.90
6841;DHT22;3458;53.678;14.080;2023-03-05T04:25:55;1.80;99.90
6841;DHT22;3458;53.678;14.080;2023-03-05T04:28:21;1.70;99.90
6841;DHT22;3458;53.678;14.080;2023-03-05T04:30:46;1.80;99.90
6841;DHT22;3458;53.678;14.080;2023-03-05T04:33:12;1.80;99.90
6841;DHT22;3458;53.678;14.080;2023-03-05T04:35:37;1.90;99.90
6841;DHT22;3458;53.678;14.080;2023-03-05T04:38:03;1.90;99.90
6841;DHT22;3458;53.678;14.080;2023-03-05T04:40:29;1.80;99.90
6841;DHT22;3458;53.678;14.080;2023-03-05T04:42:55;1.80;99.90
6841;DHT22;3458;53.678;14.080;2023-03-05T04:45:20;1.70;99.90
6841;DHT22;3458;53.678;14.080;2023-03-05T04:47:46;1.80;99.90
6841;DHT22;3458;53.678;14.080;2023-03-05T04:50:12;1.70;99.90
6841;DHT22;3458;53.678;14.080;2023-03-05T04:52:39;1.70;99.90
6841;DHT22;3458;53.678;14.080;2023-03-05T04:55:06;1.70;99.90
6841;DHT22;3458;53.678;14.080;2023-03-05T04:57:32;1.70;99.90
6841;DHT22;3458;53.678;14.080;2023-03-05T04:59:57;1.70;99.90
6841;DHT22;3458;53.678;14.080;2023-03-05T05:02:23;1.80;99.90
6841;DHT22;3458;53.678;14.080;2023-03-05T05:04:52;1.80;99.90
6841;DHT22;3458;53.678;14.080;2023-03-05T05:07:17;1.80;99.90
6841;DHT22;3458;53.678;14.080;2023-03-05T05:09:43;1.90;99.90
6841;DHT22;3458;53.678;14.080;2023-03-05T05:12:08;1.80;99.90
6841;DHT22;3458;53.678;14.080;2023-03-05T05:14:34;1.80;99.90
6841;DHT22;3458;53.678;14.080;2023-03-05T05:17:00;1.90;99.90
6841;DHT22;3458;53.678;14.080;2023-03-05T05:19:38;1.90;99.90
6841;DHT22;3458;53.678;14.080;2023-03-05T05:22:03;1.80;99.90
6841;DHT22;3458;53.678;14.080;2023-03-05T05:24:29;1.90;99.90
6841;DHT22;3458;53.678;14.080;2023-03-05T05:26:55;1.90;99.90
6841;DHT22;3458;53.678;14.080;2023-03-05T05:29:20;1.80;99.90
6841;DHT22;3458;53.678;14.080;2023-03-05T05:31:46;1.80;99.90
6841;DHT22;3458;53.678;14.080;2023-03-05T05:34:12;1.90;99.90
6841;DHT22;3458;53.678;14.080;2023-03-05T05:36:37;1.90;99.90
6841;DHT22;3458;53.678;14.080;2023-03-05T05:39:03;1.90;99.90
6841;DHT22;3458;53.678;14.080;2023-03-05T05:41:29;1.90;99.90
6841;DHT22;3458;53.678;14.080;2023-03-05T05:43:54;2.00;99.90
6841;DHT22;3458;53.678;14.080;2023-03-05T05:46:20;2.00;99.90
6841;DHT22;3458;53.678;14.080;2023-03-05T05:48:47;2.00;99.90
6841;DHT22;3458;53.678;14.080;2023-03-05T05:51:16;2.00;99.90
6841;DHT22;3458;53.678;14.080;2023-03-05T05:53:42;2.00;99.90
6841;DHT22;3458;53.678;14.080;2023-03-05T05:56:09;2.00;99.90
6841;DHT22;3458;53.678;14.080;2023-03-05T05:58:36;2.00;99.90
6841;DHT22;3458;53.678;14.080;2023-03-05T06:01:09;2.00;99.90
6841;DHT22;3458;53.678;14.080;2023-03-05T06:03:35;2.00;99.90
6841;DHT22;3458;53.678;14.080;2023-03-05T06:06:00;2.00;99.90
6841;DHT22;3458;53.678;14.080;2023-03-05T06:08:26;2.00;99.90
6841;DHT22;3458;53.678;14.080;2023-03-05T06:10:54;2.00;99.90
6841;DHT22;3458;53.678;14.080;2023-03-05T06:13:20;2.10;99.90
6841;DHT22;3458;53.678;14.080;2023-03-05T06:15:57;2.10;99.90
6841;DHT22;3458;53.678;14.080;2023-03-05T06:18:23;2.00;99.90
6841;DHT22;3458;53.678;14.080;2023-03-05T06:20:59;2.10;99.90
6841;DHT22;3458;53.678;14.080;2023-03-05T06:23:26;2.00;99.90
6841;DHT22;3458;53.678;14.080;2023-03-05T06:25:52;2.00;99.90
6841;DHT22;3458;53.678;14.080;2023-03-05T06:28:18;2.10;99.90
6841;DHT22;3458;53.678;14.080;2023-03-05T06:30:44;2.10;99.90
6841;DHT22;3458;53.678;14.080;2023-03-05T06:33:09;2.10;99.90
6841;DHT22;3458;53.678;14.080;2023-03-05T06:35:37;2.10;99.90
6841;DHT22;3458;53.678;14.080;2023-03-05T06:38:04;2.10;99.90
6841;DHT22;3458;53.678;14.080;2023-03-05T06:40:29;2.00;99.90
6841;DHT22;3458;53.678;14.080;2023-03-05T06:42:55;2.00;99.90
6841;DHT22;3458;53.678;14.080;2023-03-05T06:45:20;2.10;99.90
6841;DHT22;3458;53.678;14.080;2023-03-05T06:47:46;2.20;99.90
6841;DHT22;3458;53.678;14.080;2023-03-05T06:50:11;2.20;99.90
6841;DHT22;3458;53.678;14.080;2023-03-05T06:52:37;2.30;99.90
6841;DHT22;3458;53.678;14.080;2023-03-05T06:55:05;2.30;99.90
6841;DHT22;3458;53.678;14.080;2023-03-05T06:57:31;2.20;99.90
6841;DHT22;3458;53.678;14.080;2023-03-05T06:59:57;2.30;99.90
6841;DHT22;3458;53.678;14.080;2023-03-05T07:02:22;2.30;99.90
6841;DHT22;3458;53.678;14.080;2023-03-05T07:04:48;2.30;99.90
6841;DHT22;3458;53.678;14.080;2023-03-05T07:07:13;2.20;99.90
6841;DHT22;3458;53.678;14.080;2023-03-05T07:09:39;2.20;99.90
6841;DHT22;3458;53.678;14.080;2023-03-05T07:12:09;2.20;99.90
6841;DHT22;3458;53.678;14.080;2023-03-05T07:14:36;2.20;99.90
6841;DHT22;3458;53.678;14.080;2023-03-05T07:17:03;2.20;99.90
6841;DHT22;3458;53.678;14.080;2023-03-05T07:19:29;2.30;99.90
6841;DHT22;3458;53.678;14.080;2023-03-05T07:21:54;2.40;99.90
6841;DHT22;3458;53.678;14.080;2023-03-05T07:24:20;2.40;99.90
6841;DHT22;3458;53.678;14.080;2023-03-05T07:26:45;2.40;99.90
6841;DHT22;3458;53.678;14.080;2023-03-05T07:29:11;2.50;99.90
6841;DHT22;3458;53.678;14.080;2023-03-05T07:31:36;2.50;99.90
6841;DHT22;3458;53.678;14.080;2023-03-05T07:34:02;2.60;99.90
6841;DHT22;3458;53.678;14.080;2023-03-05T07:36:29;2.60;99.90
6841;DHT22;3458;53.678;14.080;2023-03-05T07:38:55;2.70;99.90
6841;DHT22;3458;53.678;14.080;2023-03-05T07:41:20;2.70;99.90
6841;DHT22;3458;53.678;14.080;2023-03-05T07:43:49;2.80;99.90
6841;DHT22;3458;53.678;14.080;2023-03-05T07:46:17;2.80;99.90
6841;DHT22;3458;53.678;14.080;2023-03-05T07:48:43;2.90;99.90
6841;DHT22;3458;53.678;14.080;2023-03-05T07:51:15;2.80;99.90
6841;DHT22;3458;53.678;14.080;2023-03-05T07:53:42;2.80;99.90
6841;DHT22;3458;53.678;14.080;2023-03-05T07:56:08;2.80;99.90
6841;DHT22;3458;53.678;14.080;2023-03-05T07:58:34;2.70;99.90
6841;DHT22;3458;53.678;14.080;2023-03-05T08:00:59;2.70;99.90
6841;DHT22;3458;53.678;14.080;2023-03-05T08:03:25;2.60;99.90
6841;DHT22;3458;53.678;14.080;2023-03-05T08:05:50;2.50;99.90
6841;DHT22;3458;53.678;14.080;2023-03-05T08:08:16;2.50;99.90
6841;DHT22;3458;53.678;14.080;2023-03-05T08:10:42;2.50;99.90
6841;DHT22;3458;53.678;14.080;2023-03-05T08:13:07;2.60;99.90
6841;DHT22;3458;53.678;14.080;2023-03-05T08:15:33;2.70;99.90
6841;DHT22;3458;53.678;14.080;2023-03-05T08:17:59;2.80;99.90
6841;DHT22;3458;53.678;14.080;2023-03-05T08:20:25;2.80;99.90
6841;DHT22;3458;53.678;14.080;2023-03-05T08:22:50;2.70;99.90
6841;DHT22;3458;53.678;14.080;2023-03-05T08:25:16;2.90;99.90
6841;DHT22;3458;53.678;14.080;2023-03-05T08:27:43;3.10;99.90
6841;DHT22;3458;53.678;14.080;2023-03-05T08:30:12;3.20;99.90
6841;DHT22;3458;53.678;14.080;2023-03-05T08:32:39;3.20;99.90
6841;DHT22;3458;53.678;14.080;2023-03-05T08:35:05;3.30;99.90
6841;DHT22;3458;53.678;14.080;2023-03-05T08:37:31;3.30;99.90
6841;DHT22;3458;53.678;14.080;2023-03-05T08:39:57;3.20;99.90
6841;DHT22;3458;53.678;14.080;2023-03-05T08:42:23;3.30;99.90
6841;DHT22;3458;53.678;14.080;2023-03-05T08:44:48;3.40;99.90
6841;DHT22;3458;53.678;14.080;2023-03-05T08:47:14;3.40;99.90
6841;DHT22;3458;53.678;14.080;2023-03-05T08:49:39;3.40;99.90
6841;DHT22;3458;53.678;14.080;2023-03-05T08:52:05;3.60;99.90
6841;DHT22;3458;53.678;14.080;2023-03-05T08:54:31;3.70;99.90
6841;DHT22;3458;53.678;14.080;2023-03-05T08:56:57;3.60;99.90
6841;DHT22;3458;53.678;14.080;2023-03-05T08:59:23;3.50;99.90
6841;DHT22;3458;53.678;14.080;2023-03-05T09:01:48;3.40;99.90
6841;DHT22;3458;53.678;14.080;2023-03-05T09:04:14;3.40;99.90
6841;DHT22;3458;53.678;14.080;2023-03-05T09:06:40;3.30;99.90
6841;DHT22;3458;53.678;14.080;2023-03-05T09:09:08;3.30;99.90
6841;DHT22;3458;53.678;14.080;2023-03-05T09:11:35;3.40;99.90
6841;DHT22;3458;53.678;14.080;2023-03-05T09:14:02;3.40;99.90
6841;DHT22;3458;53.678;14.080;2023-03-05T09:16:28;3.40;99.90
6841;DHT22;3458;53.678;14.080;2023-03-05T09:18:53;3.70;99.90
6841;DHT22;3458;53.678;14.080;2023-03-05T09:21:19;4.00;99.90
6841;DHT22;3458;53.678;14.080;2023-03-05T09:23:45;4.40;99.90
6841;DHT22;3458;53.678;14.080;2023-03-05T09:26:12;4.60;99.90
6841;DHT22;3458;53.678;14.080;2023-03-05T09:28:40;4.60;99.90
6841;DHT22;3458;53.678;14.080;2023-03-05T09:31:07;4.60;99.90
6841;DHT22;3458;53.678;14.080;2023-03-05T09:33:34;4.40;98.60
6841;DHT22;3458;53.678;14.080;2023-03-05T09:36:00;4.20;95.40
6841;DHT22;3458;53.678;14.080;2023-03-05T09:38:26;4.00;95.10
6841;DHT22;3458;53.678;14.080;2023-03-05T09:43:43;3.70;93.60
6841;DHT22;3458;53.678;14.080;2023-03-05T09:46:36;3.70;93.70
6841;DHT22;3458;53.678;14.080;2023-03-05T09:52:12;3.40;93.30
6841;DHT22;3458;53.678;14.080;2023-03-05T09:54:42;3.20;94.40
6841;DHT22;3458;53.678;14.080;2023-03-05T09:57:16;3.20;94.90
6841;DHT22;3458;53.678;14.080;2023-03-05T10:00:04;3.40;95.80
6841;DHT22;3458;53.678;14.080;2023-03-05T10:02:44;3.70;95.90
6841;DHT22;3458;53.678;14.080;2023-03-05T10:05:17;3.90;94.50
6841;DHT22;3458;53.678;14.080;2023-03-05T10:07:54;4.10;95.20
6841;DHT22;3458;53.678;14.080;2023-03-05T10:10:40;4.40;94.50
6841;DHT22;3458;53.678;14.080;2023-03-05T10:13:31;4.60;94.30
6841;DHT22;3458;53.678;14.080;2023-03-05T10:18:50;5.20;91.80
6841;DHT22;3458;53.678;14.080;2023-03-05T10:21:30;5.40;87.40
6841;DHT22;3458;53.678;14.080;2023-03-05T10:24:21;5.40;85.80
6841;DHT22;3458;53.678;14.080;2023-03-05T10:27:13;5.10;85.50
6841;DHT22;3458;53.678;14.080;2023-03-05T10:32:19;4.90;82.90
6841;DHT22;3458;53.678;14.080;2023-03-05T10:35:11;4.80;81.00
6841;DHT22;3458;53.678;14.080;2023-03-05T10:37:47;4.90;82.80
6841;DHT22;3458;53.678;14.080;2023-03-05T10:40:48;5.40;84.30
6841;DHT22;3458;53.678;14.080;2023-03-05T10:43:31;5.60;79.80
6841;DHT22;3458;53.678;14.080;2023-03-05T10:45:59;5.50;78.20
6841;DHT22;3458;53.678;14.080;2023-03-05T10:48:40;5.20;76.20
6841;DHT22;3458;53.678;14.080;2023-03-05T10:51:20;4.90;75.20
6841;DHT22;3458;53.678;14.080;2023-03-05T10:53:55;4.80;76.60
6841;DHT22;3458;53.678;14.080;2023-03-05T10:56:24;4.70;77.30
6841;DHT22;3458;53.678;14.080;2023-03-05T10:58:50;4.60;77.30
6841;DHT22;3458;53.678;14.080;2023-03-05T11:03:52;4.60;78.60
6841;DHT22;3458;53.678;14.080;2023-03-05T11:06:28;4.40;78.80
6841;DHT22;3458;53.678;14.080;2023-03-05T11:09:02;4.30;79.00
6841;DHT22;3458;53.678;14.080;2023-03-05T11:11:38;4.20;80.60
6841;DHT22;3458;53.678;14.080;2023-03-05T11:14:05;4.10;81.20
6841;DHT22;3458;53.678;14.080;2023-03-05T11:16:48;4.10;81.80
6841;DHT22;3458;53.678;14.080;2023-03-05T11:21:40;4.00;82.00
6841;DHT22;3458;53.678;14.080;2023-03-05T11:24:17;4.00;81.50
6841;DHT22;3458;53.678;14.080;2023-03-05T11:26:50;4.20;81.20
6841;DHT22;3458;53.678;14.080;2023-03-05T11:29:23;4.30;79.30
6841;DHT22;3458;53.678;14.080;2023-03-05T11:31:49;4.30;76.70
6841;DHT22;3458;53.678;14.080;2023-03-05T11:36:59;4.50;73.30
6841;DHT22;3458;53.678;14.080;2023-03-05T11:39:29;4.60;72.50
6841;DHT22;3458;53.678;14.080;2023-03-05T11:42:26;4.90;71.30
6841;DHT22;3458;53.678;14.080;2023-03-05T11:44:54;5.40;71.10
6841;DHT22;3458;53.678;14.080;2023-03-05T11:50:01;6.60;64.60
6841;DHT22;3458;53.678;14.080;2023-03-05T11:52:30;7.10;60.70
6841;DHT22;3458;53.678;14.080;2023-03-05T11:55:18;7.60;60.00
6841;DHT22;3458;53.678;14.080;2023-03-05T11:57:52;7.00;57.90
6841;DHT22;3458;53.678;14.080;2023-03-05T12:00:27;6.40;58.70
6841;DHT22;3458;53.678;14.080;2023-03-05T12:02:54;6.00;60.50
6841;DHT22;3458;53.678;14.080;2023-03-05T12:05:20;5.80;62.50
6841;DHT22;3458;53.678;14.080;2023-03-05T12:07:49;5.60;62.80
6841;DHT22;3458;53.678;14.080;2023-03-05T12:10:19;5.50;64.40
6841;DHT22;3458;53.678;14.080;2023-03-05T12:15:44;5.20;66.80
6841;DHT22;3458;53.678;14.080;2023-03-05T12:18:30;5.00;69.00
6841;DHT22;3458;53.678;14.080;2023-03-05T12:21:02;5.10;70.80
6841;DHT22;3458;53.678;14.080;2023-03-05T12:23:43;5.30;71.40
6841;DHT22;3458;53.678;14.080;2023-03-05T12:26:09;5.30;69.30
6841;DHT22;3458;53.678;14.080;2023-03-05T12:31:01;6.00;69.70
6841;DHT22;3458;53.678;14.080;2023-03-05T12:33:40;6.90;70.10
6841;DHT22;3458;53.678;14.080;2023-03-05T12:38:54;7.50;68.50
6841;DHT22;3458;53.678;14.080;2023-03-05T12:46:39;6.70;69.30
6841;DHT22;3458;53.678;14.080;2023-03-05T12:51:49;6.20;68.50
6841;DHT22;3458;53.678;14.080;2023-03-05T12:56:55;5.80;69.60
6841;DHT22;3458;53.678;14.080;2023-03-05T12:59:23;6.00;69.80
6841;DHT22;3458;53.678;14.080;2023-03-05T13:01:58;6.10;69.60
6841;DHT22;3458;53.678;14.080;2023-03-05T13:04:28;6.00;68.60
6841;DHT22;3458;53.678;14.080;2023-03-05T13:07:00;5.90;68.60
6841;DHT22;3458;53.678;14.080;2023-03-05T13:09:31;5.70;68.10
6841;DHT22;3458;53.678;14.080;2023-03-05T13:11:59;5.70;69.30
6841;DHT22;3458;53.678;14.080;2023-03-05T13:14:38;5.70;68.80
6841;DHT22;3458;53.678;14.080;2023-03-05T13:17:28;5.80;69.00
6841;DHT22;3458;53.678;14.080;2023-03-05T13:19:55;5.80;68.20
6841;DHT22;3458;53.678;14.080;2023-03-05T13:22:21;5.80;67.80
6841;DHT22;3458;53.678;14.080;2023-03-05T13:25:02;5.80;68.00
6841;DHT22;3458;53.678;14.080;2023-03-05T13:27:30;5.80;68.00
6841;DHT22;3458;53.678;14.080;2023-03-05T13:29:56;5.80;68.00
6841;DHT22;3458;53.678;14.080;2023-03-05T13:32:30;5.60;68.40
6841;DHT22;3458;53.678;14.080;2023-03-05T13:34:57;5.50;69.60
6841;DHT22;3458;53.678;14.080;2023-03-05T13:37:25;5.10;67.60
6841;DHT22;3458;53.678;14.080;2023-03-05T13:40:32;4.90;69.00
6841;DHT22;3458;53.678;14.080;2023-03-05T13:42:51;4.80;69.30
6841;DHT22;3458;53.678;14.080;2023-03-05T13:45:29;5.10;70.20
6841;DHT22;3458;53.678;14.080;2023-03-05T13:47:57;6.60;72.30
6841;DHT22;3458;53.678;14.080;2023-03-05T13:50:34;7.50;65.70
6841;DHT22;3458;53.678;14.080;2023-03-05T13:55:44;7.50;63.10
6841;DHT22;3458;53.678;14.080;2023-03-05T14:04:36;10.60;59.10
6841;DHT22;3458;53.678;14.080;2023-03-05T14:06:58;11.70;54.70
6841;DHT22;3458;53.678;14.080;2023-03-05T14:09:50;11.80;52.40
6841;DHT22;3458;53.678;14.080;2023-03-05T14:12:34;12.30;52.80
6841;DHT22;3458;53.678;14.080;2023-03-05T14:15:01;13.00;51.80
6841;DHT22;3458;53.678;14.080;2023-03-05T14:20:24;11.70;50.20
6841;DHT22;3458;53.678;14.080;2023-03-05T14:22:56;11.20;51.50
6841;DHT22;3458;53.678;14.080;2023-03-05T14:25:33;11.30;52.60
6841;DHT22;3458;53.678;14.080;2023-03-05T14:30:45;11.90;51.80
6841;DHT22;3458;53.678;14.080;2023-03-05T14:33:11;12.10;49.70
6841;DHT22;3458;53.678;14.080;2023-03-05T14:35:37;12.00;49.00
6841;DHT22;3458;53.678;14.080;2023-03-05T14:38:04;12.20;49.20
6841;DHT22;3458;53.678;14.080;2023-03-05T14:40:32;11.50;48.20
6841;DHT22;3458;53.678;14.080;2023-03-05T14:43:05;10.60;48.20
6841;DHT22;3458;53.678;14.080;2023-03-05T14:45:39;9.80;50.10
6841;DHT22;3458;53.678;14.080;2023-03-05T14:48:08;8.90;50.00
6841;DHT22;3458;53.678;14.080;2023-03-05T14:50:43;8.40;51.30
6841;DHT22;3458;53.678;14.080;2023-03-05T14:53:14;8.50;52.10
6841;DHT22;3458;53.678;14.080;2023-03-05T14:55:41;8.70;52.80
6841;DHT22;3458;53.678;14.080;2023-03-05T14:58:13;8.50;54.00
6841;DHT22;3458;53.678;14.080;2023-03-05T15:00:39;9.10;56.20
6841;DHT22;3458;53.678;14.080;2023-03-05T15:03:05;9.70;56.60
6841;DHT22;3458;53.678;14.080;2023-03-05T15:05:30;10.00;55.80
6841;DHT22;3458;53.678;14.080;2023-03-05T15:07:56;10.40;55.70
6841;DHT22;3458;53.678;14.080;2023-03-05T15:10:24;10.10;56.10
6841;DHT22;3458;53.678;14.080;2023-03-05T15:12:50;9.40;56.90
6841;DHT22;3458;53.678;14.080;2023-03-05T15:15:17;9.90;57.80
6841;DHT22;3458;53.678;14.080;2023-03-05T15:17:45;10.10;55.90
6841;DHT22;3458;53.678;14.080;2023-03-05T15:20:19;9.40;56.20
6841;DHT22;3458;53.678;14.080;2023-03-05T15:22:45;8.70;56.60
6841;DHT22;3458;53.678;14.080;2023-03-05T15:25:11;8.30;57.40
6841;DHT22;3458;53.678;14.080;2023-03-05T15:27:37;7.80;57.10
6841;DHT22;3458;53.678;14.080;2023-03-05T15:30:04;7.40;57.50
6841;DHT22;3458;53.678;14.080;2023-03-05T15:32:29;7.10;58.00
6841;DHT22;3458;53.678;14.080;2023-03-05T15:34:56;6.90;58.90
6841;DHT22;3458;53.678;14.080;2023-03-05T15:37:22;6.70;59.40
6841;DHT22;3458;53.678;14.080;2023-03-05T15:39:48;6.60;60.00
6841;DHT22;3458;53.678;14.080;2023-03-05T15:42:13;6.80;60.00
6841;DHT22;3458;53.678;14.080;2023-03-05T15:44:38;8.40;59.00
6841;DHT22;3458;53.678;14.080;2023-03-05T15:47:05;9.40;57.60
6841;DHT22;3458;53.678;14.080;2023-03-05T15:49:31;9.80;56.20
6841;DHT22;3458;53.678;14.080;2023-03-05T15:51:56;9.30;55.80
6841;DHT22;3458;53.678;14.080;2023-03-05T15:54:22;8.80;56.10
6841;DHT22;3458;53.678;14.080;2023-03-05T15:56:48;8.20;56.80
6841;DHT22;3458;53.678;14.080;2023-03-05T15:59:13;7.70;57.20
6841;DHT22;3458;53.678;14.080;2023-03-05T16:01:42;7.30;57.80
6841;DHT22;3458;53.678;14.080;2023-03-05T16:04:09;7.00;58.00
6841;DHT22;3458;53.678;14.080;2023-03-05T16:06:35;6.80;58.20
6841;DHT22;3458;53.678;14.080;2023-03-05T16:09:03;6.70;58.10
6841;DHT22;3458;53.678;14.080;2023-03-05T16:11:34;6.60;57.80
6841;DHT22;3458;53.678;14.080;2023-03-05T16:14:02;6.40;57.70
6841;DHT22;3458;53.678;14.080;2023-03-05T16:16:29;6.20;57.40
6841;DHT22;3458;53.678;14.080;2023-03-05T16:18:55;6.10;57.60
6841;DHT22;3458;53.678;14.080;2023-03-05T16:21:21;6.00;58.00
6841;DHT22;3458;53.678;14.080;2023-03-05T16:23:47;5.90;58.20
6841;DHT22;3458;53.678;14.080;2023-03-05T16:26:14;5.90;58.40
6841;DHT22;3458;53.678;14.080;2023-03-05T16:28:40;5.80;58.40
6841;DHT22;3458;53.678;14.080;2023-03-05T16:31:05;5.70;58.60
6841;DHT22;3458;53.678;14.080;2023-03-05T16:33:31;5.60;59.00
6841;DHT22;3458;53.678;14.080;2023-03-05T16:36:19;5.50;59.40
6841;DHT22;3458;53.678;14.080;2023-03-05T16:38:46;5.30;60.30
6841;DHT22;3458;53.678;14.080;2023-03-05T16:41:15;5.20;60.40
6841;DHT22;3458;53.678;14.080;2023-03-05T16:43:42;5.10;60.90
6841;DHT22;3458;53.678;14.080;2023-03-05T16:46:08;5.00;61.40
6841;DHT22;3458;53.678;14.080;2023-03-05T16:48:34;4.90;61.70
6841;DHT22;3458;53.678;14.080;2023-03-05T16:51:00;4.90;62.20
6841;DHT22;3458;53.678;14.080;2023-03-05T16:53:25;4.80;62.40
6841;DHT22;3458;53.678;14.080;2023-03-05T16:55:51;4.80;62.80
6841;DHT22;3458;53.678;14.080;2023-03-05T16:58:16;4.70;62.90
6841;DHT22;3458;53.678;14.080;2023-03-05T17:00:42;4.70;63.00
6841;DHT22;3458;53.678;14.080;2023-03-05T17:03:07;4.60;63.20
6841;DHT22;3458;53.678;14.080;2023-03-05T17:05:36;4.50;63.20